Time;durP1;ratioP1;P1;durP2;ratioP2;P2;SDS_P1;SDS_P2;PMS_P1;PMS_P2;Temp;Humidity;BMP_temperature;BMP_pressure;BME280_temperature;BME280_humidity;BME280_pressure;Samples;Min_cycle;Max_cycle;Signal;HPM_P1;HPM_P2
2022/10/15 00:02:02;;;;;;;4.50;2.00;;;;;;;8.13;56.84;100267.39;24610;1329;3056352;-66
2022/10/15 00:04:31;;;;;;;5.10;2.50;;;;;;;8.09;56.78;100268.92;24514;1333;3025828;-71
2022/10/15 00:07:00;;;;;;;4.00;2.00;;;;;;;8.08;56.57;100270.55;24584;1336;3025369;-68
2022/10/15 00:09:29;;;;;;;5.00;2.10;;;;;;;8.07;56.46;100272.15;24515;1331;3056138;-68
2022/10/15 00:11:58;;;;;;;8.00;2.50;;;;;;;8.07;56.57;100270.56;24622;1329;3026245;-67
2022/10/15 00:14:28;;;;;;;4.80;2.20;;;;;;;8.07;56.53;100266.58;24542;1331;3051348;-67
2022/10/15 00:16:57;;;;;;;4.30;2.00;;;;;;;8.06;56.53;100271.51;24512;1330;3027983;-71
2022/10/15 00:19:26;;;;;;;4.50;2.30;;;;;;;8.08;56.64;100276.99;24524;1340;3025325;-68
2022/10/15 00:21:55;;;;;;;6.40;2.30;;;;;;;8.09;56.24;100274.01;24610;1329;3049819;-70
2022/10/15 00:24:24;;;;;;;5.50;2.20;;;;;;;8.08;56.05;100272.80;24527;1330;3026354;-74
2022/10/15 00:26:54;;;;;;;5.50;2.30;;;;;;;8.09;55.98;100274.16;24529;1331;3070353;-67
2022/10/15 00:29:23;;;;;;;4.50;2.20;;;;;;;8.06;56.03;100278.64;24581;1329;3027000;-67
2022/10/15 00:31:55;;;;;;;6.80;2.00;;;;;;;8.02;55.84;100279.15;24557;1337;3049918;-71
2022/10/15 00:34:24;;;;;;;4.70;2.20;;;;;;;8.00;55.62;100280.95;24599;1323;3029458;-72
2022/10/15 00:36:53;;;;;;;4.30;2.60;;;;;;;7.99;55.61;100282.05;24535;1330;3053067;-66
2022/10/15 00:39:22;;;;;;;5.40;2.00;;;;;;;7.98;55.61;100285.77;24527;1330;3026951;-73
2022/10/15 00:41:52;;;;;;;7.40;2.30;;;;;;;7.96;55.46;100285.48;24506;1321;3050409;-67
2022/10/15 00:44:24;;;;;;;4.60;2.20;;;;;;;7.94;55.30;100288.84;24554;1328;3026598;-65
2022/10/15 00:46:59;;;;;;;5.20;2.50;;;;;;;7.95;55.36;100291.44;24527;1331;3026764;-67
2022/10/15 00:49:44;;;;;;;3.60;1.80;;;;;;;7.94;55.30;100287.46;24473;1336;3068892;-67
2022/10/15 00:52:15;;;;;;;4.80;1.90;;;;;;;7.92;55.27;100291.20;24474;1330;3050134;-69
2022/10/15 00:54:58;;;;;;;4.40;2.00;;;;;;;7.89;54.98;100290.59;24555;1331;3025929;-64
2022/10/15 00:57:28;;;;;;;5.40;2.20;;;;;;;7.87;54.67;100292.93;24518;1336;3054226;-66
2022/10/15 00:59:59;;;;;;;5.20;2.10;;;;;;;7.82;54.84;100289.81;24532;1337;3028165;-71
2022/10/15 01:02:28;;;;;;;7.70;2.20;;;;;;;7.78;54.78;100289.61;24497;1333;3026700;-68
2022/10/15 01:04:58;;;;;;;5.40;2.30;;;;;;;7.77;54.55;100289.45;24522;1330;3030085;-69
2022/10/15 01:07:27;;;;;;;8.10;2.10;;;;;;;7.74;54.83;100289.06;24555;1322;3027712;-67
2022/10/15 01:09:56;;;;;;;6.50;2.20;;;;;;;7.72;54.85;100287.70;24497;1329;3027467;-69
2022/10/15 01:12:55;;;;;;;4.10;1.70;;;;;;;7.72;54.71;100293.11;24491;1340;3051321;-68
2022/10/15 01:15:37;;;;;;;2.50;1.80;;;;;;;7.72;54.73;100295.73;24508;1329;3048715;-71
2022/10/15 01:18:32;;;;;;;5.70;2.00;;;;;;;7.65;54.88;100295.11;25429;1337;3069423;-70
2022/10/15 01:21:11;;;;;;;6.90;2.10;;;;;;;7.58;55.40;100299.56;25458;1331;3048593;-70
2022/10/15 01:23:53;;;;;;;5.70;2.70;;;;;;;7.55;55.33;100302.61;25449;1334;3057098;-68
2022/10/15 01:26:38;;;;;;;5.70;2.20;;;;;;;7.52;55.56;100304.63;25473;1331;3052629;-68
2022/10/15 01:29:22;;;;;;;4.90;2.30;;;;;;;7.51;55.57;100304.13;25472;1324;3053938;-71
2022/10/15 01:32:08;;;;;;;4.90;1.80;;;;;;;7.51;55.56;100302.41;25459;1336;3051879;-69
2022/10/15 01:34:52;;;;;;;4.80;2.20;;;;;;;7.51;55.15;100302.59;25433;1331;3053991;-68
2022/10/15 01:37:46;;;;;;;3.70;2.20;;;;;;;7.47;55.45;100306.40;25449;1336;3049368;-69
2022/10/15 01:40:37;;;;;;;6.30;1.90;;;;;;;7.44;55.82;100312.23;25447;1331;3068559;-70
2022/10/15 01:43:10;;;;;;;5.20;2.30;;;;;;;7.45;56.03;100314.13;25437;1330;3049933;-70
2022/10/15 01:45:55;;;;;;;4.70;2.00;;;;;;;7.43;56.07;100312.63;25437;1330;3055864;-70
2022/10/15 01:48:54;;;;;;;4.00;2.00;;;;;;;7.44;56.10;100316.95;25431;1329;3052913;-69
2022/10/15 01:51:23;;;;;;;6.90;2.50;;;;;;;7.38;56.64;100316.80;25442;1337;3026942;-68
2022/10/15 01:53:52;;;;;;;3.40;2.00;;;;;;;7.30;57.45;100311.14;25465;1330;3055156;-71
2022/10/15 01:56:22;;;;;;;6.70;3.00;;;;;;;7.23;57.96;100315.54;25446;1334;3027438;-66
2022/10/15 01:58:51;;;;;;;5.40;3.10;;;;;;;7.17;58.25;100310.52;25452;1322;3048639;-71
2022/10/15 02:01:20;;;;;;;4.00;2.60;;;;;;;7.14;58.24;100312.16;25426;1333;3024534;-67
2022/10/15 02:03:50;;;;;;;5.60;2.90;;;;;;;7.12;58.10;100315.59;25449;1331;3026361;-70
2022/10/15 02:06:22;;;;;;;6.50;2.90;;;;;;;7.15;57.80;100312.66;25462;1331;3050168;-70
2022/10/15 02:09:05;;;;;;;6.40;2.80;;;;;;;7.16;58.28;100318.92;25446;1337;3026983;-71
2022/10/15 02:12:19;;;;;;;5.00;2.40;;;;;;;7.15;57.90;100318.08;25437;1327;3050732;-72
2022/10/15 02:15:00;;;;;;;5.40;2.00;;;;;;;7.12;57.51;100323.77;25375;1336;3053162;-68
2022/10/15 02:17:36;;;;;;;4.50;2.30;;;;;;;7.10;57.62;100320.86;25452;1331;3051865;-65
2022/10/15 02:20:23;;;;;;;5.30;2.30;;;;;;;6.99;58.09;100325.23;25449;1327;3053257;-66
2022/10/15 02:23:06;;;;;;;7.20;2.80;;;;;;;6.91;58.73;100324.94;25452;1332;3050737;-67
2022/10/15 02:25:35;;;;;;;4.10;2.30;;;;;;;6.85;59.13;100320.77;25428;1335;3070385;-63
2022/10/15 02:28:04;;;;;;;7.00;2.90;;;;;;;6.81;59.40;100321.60;25432;1330;3025841;-70
2022/10/15 02:30:33;;;;;;;4.70;2.80;;;;;;;6.73;60.23;100320.98;25471;1324;3025600;-69
2022/10/15 02:33:02;;;;;;;6.40;2.90;;;;;;;6.66;60.65;100324.31;25449;1330;3067895;-69
2022/10/15 02:35:32;;;;;;;7.30;2.80;;;;;;;6.70;59.25;100321.95;25453;1329;3026869;-70
2022/10/15 02:38:02;;;;;;;7.80;2.30;;;;;;;6.77;58.84;100322.77;25457;1331;3026792;-70
2022/10/15 02:40:32;;;;;;;4.50;2.40;;;;;;;6.79;58.89;100321.14;25407;1341;3068332;-65
2022/10/15 02:43:04;;;;;;;4.50;2.40;;;;;;;6.78;58.22;100319.45;25456;1340;3027350;-66
2022/10/15 02:45:35;;;;;;;4.30;2.10;;;;;;;6.78;58.28;100328.31;25432;1340;3026606;-71
2022/10/15 02:48:05;;;;;;;7.10;2.40;;;;;;;6.72;58.75;100328.66;25455;1330;3026313;-69
2022/10/15 02:50:34;;;;;;;4.00;2.00;;;;;;;6.61;59.22;100331.27;25466;1325;3026703;-65
2022/10/15 02:53:03;;;;;;;5.30;2.20;;;;;;;6.60;59.30;100326.09;25451;1330;3026608;-69
2022/10/15 02:55:32;;;;;;;4.80;2.40;;;;;;;6.63;58.68;100333.10;25472;1329;3051967;-71
2022/10/15 02:58:01;;;;;;;7.00;2.60;;;;;;;6.66;58.70;100332.69;25491;1330;3026504;-67
2022/10/15 03:00:33;;;;;;;5.70;3.00;;;;;;;6.57;59.02;100338.20;25488;1324;3055458;-71
2022/10/15 03:03:02;;;;;;;5.60;2.70;;;;;;;6.55;59.06;100337.89;25485;1317;3024918;-69
2022/10/15 03:05:33;;;;;;;8.20;3.20;;;;;;;6.50;59.10;100333.68;25480;1324;3047530;-69
2022/10/15 03:08:05;;;;;;;7.60;2.90;;;;;;;6.51;59.03;100333.49;24777;1333;4032590;-65
2022/10/15 03:10:36;;;;;;;8.00;3.10;;;;;;;6.48;58.88;100339.30;25481;1320;3068302;-73
2022/10/15 03:13:07;;;;;;;6.00;2.90;;;;;;;6.42;58.99;100336.88;25501;1320;3026734;-70
2022/10/15 03:15:42;;;;;;;5.50;2.80;;;;;;;6.45;58.77;100336.98;25491;1323;3056327;-69
2022/10/15 03:18:11;;;;;;;4.60;3.20;;;;;;;6.46;59.00;100341.48;25505;1324;3026512;-66
2022/10/15 03:20:44;;;;;;;7.40;2.80;;;;;;;6.47;58.96;100341.26;25498;1323;3049485;-71
2022/10/15 03:23:13;;;;;;;6.40;3.20;;;;;;;6.42;59.40;100333.91;25499;1328;3027032;-65
2022/10/15 03:25:41;;;;;;;7.80;3.70;;;;;;;6.38;59.14;100335.95;25486;1324;3066498;-68
2022/10/15 03:28:12;;;;;;;7.60;3.20;;;;;;;6.34;59.44;100334.17;25504;1315;3026173;-75
2022/10/15 03:30:43;;;;;;;7.60;3.40;;;;;;;6.31;59.30;100335.10;25495;1323;3026925;-72
2022/10/15 03:33:12;;;;;;;7.10;3.10;;;;;;;6.29;59.21;100337.27;25502;1322;3026182;-68
2022/10/15 03:35:42;;;;;;;5.60;3.60;;;;;;;6.27;59.22;100339.76;25493;1320;3049183;-67
2022/10/15 03:38:12;;;;;;;5.70;3.10;;;;;;;6.29;58.84;100345.61;25485;1323;3026697;-66
2022/10/15 03:40:41;;;;;;;3.80;2.50;;;;;;;6.30;58.75;100333.74;25491;1320;3026417;-67
2022/10/15 03:43:22;;;;;;;5.80;2.60;;;;;;;6.29;58.60;100335.17;25477;1319;3051354;-63
2022/10/15 03:45:51;;;;;;;4.90;2.60;;;;;;;6.33;58.22;100335.23;25485;1323;3026378;-67
2022/10/15 03:48:23;;;;;;;7.30;2.80;;;;;;;6.31;58.34;100336.35;25499;1323;3026960;-67
2022/10/15 03:50:53;;;;;;;5.80;3.00;;;;;;;6.28;58.44;100333.27;25499;1324;3026991;-69
2022/10/15 03:53:22;;;;;;;6.00;2.80;;;;;;;6.29;58.37;100339.19;25471;1325;3026247;-65
2022/10/15 03:55:51;;;;;;;6.10;2.90;;;;;;;6.27;58.68;100344.46;25476;1321;3051408;-68
2022/10/15 03:58:22;;;;;;;6.40;2.90;;;;;;;6.23;58.87;100341.25;25485;1323;3026001;-70
2022/10/15 04:00:56;;;;;;;5.60;2.70;;;;;;;6.17;59.28;100337.61;25481;1316;3056036;-65
2022/10/15 04:03:25;;;;;;;5.80;3.00;;;;;;;6.14;59.85;100339.62;25491;1322;3027714;-70
2022/10/15 04:05:56;;;;;;;6.30;2.80;;;;;;;6.09;60.27;100340.61;25489;1323;3050904;-74
2022/10/15 04:08:27;;;;;;;5.10;2.40;;;;;;;6.07;60.11;100337.20;25475;1323;3025744;-68
2022/10/15 04:10:58;;;;;;;5.70;2.80;;;;;;;6.00;60.34;100340.51;25480;1323;3027338;-69
2022/10/15 04:13:28;;;;;;;4.90;2.50;;;;;;;5.97;60.48;100341.28;25507;1319;3027415;-72
2022/10/15 04:15:57;;;;;;;7.40;3.30;;;;;;;5.90;60.82;100342.86;25485;1320;3025345;-63
2022/10/15 04:18:26;;;;;;;7.70;3.30;;;;;;;5.88;61.04;100347.94;25491;1323;3026235;-72
2022/10/15 04:21:00;;;;;;;8.40;3.50;;;;;;;5.87;61.25;100350.39;25486;1324;3054342;-68
2022/10/15 04:23:29;;;;;;;6.60;2.80;;;;;;;5.86;61.18;100347.29;25483;1322;3027559;-73
2022/10/15 04:26:19;;;;;;;9.80;3.10;;;;;;;5.88;61.61;100347.59;25499;1323;3053489;-69
2022/10/15 04:29:39;;;;;;;6.20;3.20;;;;;;;5.92;61.56;100351.83;30850;1337;3012734;-68
2022/10/15 04:32:16;;;;;;;7.80;3.10;;;;;;;5.90;61.67;100356.23;24455;1342;3070554;-68
2022/10/15 04:34:46;;;;;;;6.50;3.40;;;;;;;5.90;61.90;100357.46;24476;1338;3026300;-66
2022/10/15 04:37:16;;;;;;;6.30;3.20;;;;;;;5.90;61.84;100353.08;24471;1339;3027619;-68
2022/10/15 04:39:45;;;;;;;8.10;3.30;;;;;;;5.90;62.17;100357.10;24459;1330;3026566;-71
2022/10/15 04:42:16;;;;;;;8.60;3.70;;;;;;;5.83;62.44;100354.35;23181;1339;5366749;-67
2022/10/15 04:44:45;;;;;;;7.20;3.10;;;;;;;5.81;62.46;100358.04;24484;1343;3049391;-65
2022/10/15 04:47:14;;;;;;;7.60;3.70;;;;;;;5.80;62.41;100361.52;24393;1340;3028032;-68
2022/10/15 04:49:46;;;;;;;7.60;3.90;;;;;;;5.80;62.67;100360.84;24471;1333;3052245;-70
2022/10/15 04:52:30;;;;;;;5.70;3.10;;;;;;;5.81;62.52;100360.30;24537;1332;3049684;-70
2022/10/15 04:55:03;;;;;;;6.40;3.40;;;;;;;5.82;62.43;100364.96;24468;1332;3027026;-67
2022/10/15 04:57:35;;;;;;;8.10;3.50;;;;;;;5.84;62.33;100369.07;24468;1335;3026479;-73
2022/10/15 05:00:05;;;;;;;8.40;3.20;;;;;;;5.86;62.35;100372.49;24459;1329;3028224;-71
2022/10/15 05:02:35;;;;;;;7.90;3.70;;;;;;;5.93;62.22;100371.98;24469;1332;3029771;-69
2022/10/15 05:05:24;;;;;;;4.70;3.00;;;;;;;5.98;62.08;100376.39;24494;1341;3053004;-69
2022/10/15 05:08:03;;;;;;;7.80;3.60;;;;;;;6.04;61.88;100379.54;24473;1332;3051419;-70
2022/10/15 05:10:35;;;;;;;6.10;3.30;;;;;;;6.08;61.75;100381.17;24537;1326;3026018;-68
2022/10/15 05:13:12;;;;;;;7.80;3.40;;;;;;;6.12;61.79;100384.20;24478;1326;3048861;-68
2022/10/15 05:15:41;;;;;;;8.40;3.60;;;;;;;6.16;62.08;100382.89;24441;1336;3026303;-74
2022/10/15 05:18:11;;;;;;;6.40;3.60;;;;;;;6.20;61.83;100383.79;24428;1326;3026479;-67
2022/10/15 05:20:52;;;;;;;6.30;3.50;;;;;;;6.30;61.43;100388.21;24475;1333;3050124;-68
2022/10/15 05:23:21;;;;;;;6.90;3.60;;;;;;;6.35;61.19;100391.89;24460;1319;3026170;-70
2022/10/15 05:25:59;;;;;;;6.80;3.30;;;;;;;6.40;60.97;100393.85;24498;1332;3053482;-69
2022/10/15 05:28:29;;;;;;;5.00;3.10;;;;;;;6.47;60.68;100389.13;24417;1334;3026722;-65
2022/10/15 05:31:21;;;;;;;5.40;2.80;;;;;;;6.57;60.38;100393.00;24427;1335;3028731;-69
2022/10/15 05:33:54;;;;;;;7.10;3.40;;;;;;;6.64;60.05;100390.20;24459;1333;3050456;-72
2022/10/15 05:36:28;;;;;;;7.90;3.30;;;;;;;6.72;59.75;100393.27;24491;1333;3058249;-67
2022/10/15 05:38:59;;;;;;;6.70;3.40;;;;;;;6.79;59.72;100398.29;24523;1333;3026497;-70
2022/10/15 05:41:28;;;;;;;9.80;3.60;;;;;;;6.88;59.56;100395.58;24486;1333;3025820;-70
2022/10/15 05:43:58;;;;;;;8.30;3.70;;;;;;;6.93;59.57;100399.79;24485;1333;3025771;-68
2022/10/15 05:46:29;;;;;;;8.30;3.40;;;;;;;6.99;59.36;100402.54;24501;1326;3050071;-68
2022/10/15 05:48:59;;;;;;;9.80;3.90;;;;;;;7.08;59.47;100402.80;24490;1326;3029954;-68
2022/10/15 05:51:28;;;;;;;7.70;3.70;;;;;;;7.15;59.19;100405.52;24536;1336;3057461;-71
2022/10/15 05:54:05;;;;;;;8.00;4.30;;;;;;;7.22;59.26;100406.72;24577;1328;3052936;-71
2022/10/15 05:56:34;;;;;;;8.80;3.90;;;;;;;7.29;59.11;100408.23;24464;1340;3027343;-69
2022/10/15 05:59:03;;;;;;;5.80;3.30;;;;;;;7.35;59.02;100413.79;24466;1325;3027103;-70
2022/10/15 06:01:36;;;;;;;7.00;3.40;;;;;;;7.43;58.77;100414.25;24596;1333;3051867;-68
2022/10/15 06:04:05;;;;;;;7.60;4.30;;;;;;;7.49;58.64;100411.06;24508;1336;3025819;-69
2022/10/15 06:06:35;;;;;;;10.60;4.30;;;;;;;7.53;59.10;100412.15;24499;1336;3027424;-71
2022/10/15 06:09:05;;;;;;;10.10;3.80;;;;;;;7.59;59.11;100415.64;24595;1333;3026224;-71
2022/10/15 06:11:36;;;;;;;8.00;4.60;;;;;;;7.65;59.64;100417.71;24461;1343;3026517;-69
2022/10/15 06:14:10;;;;;;;6.30;3.80;;;;;;;7.77;58.65;100416.25;24536;1341;3070244;-74
2022/10/15 06:16:40;;;;;;;7.40;4.40;;;;;;;7.89;58.54;100416.35;24508;1336;3027430;-72
2022/10/15 06:19:11;;;;;;;12.20;5.10;;;;;;;7.99;57.87;100415.14;24587;1333;3027479;-72
2022/10/15 06:21:40;;;;;;;13.00;4.80;;;;;;;8.07;57.99;100416.27;24525;1333;3026850;-66
2022/10/15 06:24:09;;;;;;;8.70;4.30;;;;;;;8.17;57.32;100412.27;24570;1333;3049896;-71
2022/10/15 06:26:39;;;;;;;8.10;3.80;;;;;;;8.31;56.25;100414.90;24568;1326;3029666;-68
2022/10/15 06:29:11;;;;;;;8.80;4.50;;;;;;;8.46;55.80;100415.27;24542;1333;3029243;-70
2022/10/15 06:31:42;;;;;;;8.00;4.00;;;;;;;8.54;55.08;100418.11;24524;1333;3050382;-68
2022/10/15 06:34:11;;;;;;;8.00;3.90;;;;;;;8.62;54.97;100418.70;24560;1333;3025898;-71
2022/10/15 06:36:40;;;;;;;9.90;3.60;;;;;;;8.74;54.98;100418.75;24500;1335;3071141;-65
2022/10/15 06:39:09;;;;;;;7.30;3.40;;;;;;;8.84;53.92;100420.33;24617;1333;3025780;-69
2022/10/15 06:41:40;;;;;;;9.50;3.20;;;;;;;8.97;54.21;100416.48;24599;1337;3025965;-66
2022/10/15 06:44:09;;;;;;;6.90;2.90;;;;;;;9.07;53.04;100415.59;24551;1326;3025797;-67
2022/10/15 06:46:39;;;;;;;4.40;2.50;;;;;;;9.20;52.99;100422.21;24623;1324;3048706;-73
2022/10/15 06:49:08;;;;;;;7.00;2.40;;;;;;;9.27;51.99;100418.80;24542;1333;3026875;-66
2022/10/15 06:51:39;;;;;;;4.50;2.70;;;;;;;9.35;52.10;100417.29;24574;1334;3068278;-70
2022/10/15 06:54:08;;;;;;;4.80;2.30;;;;;;;9.40;51.32;100420.56;24542;1334;3026315;-70
2022/10/15 06:56:37;;;;;;;7.00;2.40;;;;;;;9.48;51.42;100418.52;24525;1332;3027067;-72
2022/10/15 06:59:07;;;;;;;4.10;2.50;;;;;;;9.57;51.36;100419.38;24591;1333;3068821;-71
2022/10/15 07:01:36;;;;;;;6.70;3.10;;;;;;;9.64;51.20;100421.17;24525;1334;3025773;-73
2022/10/15 07:04:05;;;;;;;6.00;2.90;;;;;;;9.61;51.69;100423.58;24551;1335;3047905;-72
2022/10/15 07:06:34;;;;;;;6.70;2.90;;;;;;;9.74;51.25;100423.39;24495;1334;3028236;-69
2022/10/15 07:09:04;;;;;;;4.50;2.80;;;;;;;9.82;51.11;100426.73;24552;1335;3052901;-67
2022/10/15 07:11:35;;;;;;;7.70;3.10;;;;;;;9.85;50.97;100425.88;24519;1342;3026961;-69
2022/10/15 07:14:04;;;;;;;9.80;3.80;;;;;;;9.91;51.22;100426.52;24603;1334;3027691;-71
2022/10/15 07:16:40;;;;;;;8.10;3.50;;;;;;;9.89;50.82;100428.88;24539;1330;3052008;-69
2022/10/15 07:19:09;;;;;;;8.30;3.20;;;;;;;9.95;51.13;100429.52;24565;1332;3028940;-71
2022/10/15 07:21:38;;;;;;;5.00;3.00;;;;;;;10.04;51.63;100428.77;24547;1332;3026119;-66
2022/10/15 07:24:07;;;;;;;7.90;3.30;;;;;;;10.11;51.66;100426.36;24509;1330;3051976;-69
2022/10/15 07:26:38;;;;;;;9.20;3.00;;;;;;;10.23;51.26;100422.85;24566;1333;3027271;-68
2022/10/15 07:29:07;;;;;;;5.40;2.70;;;;;;;10.32;51.05;100422.48;24534;1326;3026663;-75
2022/10/15 07:31:36;;;;;;;6.00;2.70;;;;;;;10.45;51.20;100427.69;24575;1341;3051971;-71
2022/10/15 07:34:06;;;;;;;5.30;2.60;;;;;;;10.54;50.60;100428.86;24545;1341;3026936;-68
2022/10/15 07:36:35;;;;;;;4.80;2.80;;;;;;;10.68;50.47;100424.41;24555;1333;3029899;-71
2022/10/15 07:39:05;;;;;;;4.10;2.40;;;;;;;10.75;50.32;100425.66;24563;1335;3052002;-71
2022/10/15 07:41:35;;;;;;;7.10;2.40;;;;;;;10.78;50.09;100429.01;24582;1338;3028073;-68
2022/10/15 07:44:04;;;;;;;4.60;2.40;;;;;;;10.86;50.07;100426.02;24566;1334;3025863;-65
2022/10/15 07:46:34;;;;;;;5.50;2.50;;;;;;;10.98;49.70;100425.29;24492;1336;3053304;-68
2022/10/15 07:49:03;;;;;;;4.90;2.50;;;;;;;11.03;49.85;100421.91;24602;1330;3029228;-73
2022/10/15 07:51:32;;;;;;;4.50;2.20;;;;;;;11.20;49.42;100420.91;24524;1332;3049952;-74
2022/10/15 07:54:01;;;;;;;4.10;2.70;;;;;;;11.27;48.91;100423.39;24669;1325;3027400;-74
2022/10/15 07:56:30;;;;;;;5.80;2.30;;;;;;;11.39;48.51;100417.73;24602;1336;3052989;-74
2022/10/15 07:59:00;;;;;;;3.90;2.10;;;;;;;11.54;48.14;100420.52;24557;1334;3026881;-72
2022/10/15 08:01:29;;;;;;;3.40;1.70;;;;;;;11.63;47.31;100418.66;24574;1316;3027666;-70
2022/10/15 08:03:58;;;;;;;4.30;2.00;;;;;;;11.66;47.76;100418.15;24561;1329;3053085;-70
2022/10/15 08:06:30;;;;;;;7.20;2.10;;;;;;;11.74;47.69;100419.84;24577;1325;3026693;-70
2022/10/15 08:08:59;;;;;;;2.90;1.90;;;;;;;11.79;47.54;100418.91;24614;1329;3053882;-71
2022/10/15 08:11:30;;;;;;;3.90;1.90;;;;;;;11.89;46.81;100415.08;24547;1333;3026604;-69
2022/10/15 08:13:59;;;;;;;3.20;1.70;;;;;;;12.00;46.68;100414.35;24627;1322;3028502;-69
2022/10/15 08:16:29;;;;;;;2.60;1.50;;;;;;;12.08;46.06;100412.56;24485;1332;3052591;-68
2022/10/15 08:19:01;;;;;;;3.30;1.90;;;;;;;12.12;46.22;100409.35;24527;1331;3027885;-69
2022/10/15 08:21:30;;;;;;;4.90;1.90;;;;;;;12.14;45.45;100407.33;24633;1332;3026153;-71
2022/10/15 08:23:59;;;;;;;2.50;1.50;;;;;;;12.22;44.36;100408.84;24598;1329;3026103;-67
2022/10/15 08:26:36;;;;;;;2.80;1.50;;;;;;;12.35;44.14;100409.23;24537;1339;3053992;-72
2022/10/15 08:29:05;;;;;;;2.30;1.30;;;;;;;12.47;43.87;100400.54;24628;1336;3026985;-70
2022/10/15 08:31:34;;;;;;;2.20;1.60;;;;;;;12.48;43.06;100402.40;24594;1339;3051581;-72
2022/10/15 08:34:03;;;;;;;3.50;1.40;;;;;;;12.54;42.89;100404.49;24622;1335;3027475;-67
2022/10/15 08:36:32;;;;;;;3.10;1.60;;;;;;;12.61;42.75;100406.10;24535;1337;3057842;-69
2022/10/15 08:39:05;;;;;;;2.20;1.30;;;;;;;12.65;42.90;100406.94;24586;1332;3029108;-70
2022/10/15 08:41:38;;;;;;;3.40;1.50;;;;;;;12.73;42.45;100407.16;24563;1336;3029189;-71
2022/10/15 08:44:38;;;;;;;4.40;1.40;;;;;;;12.68;41.78;100406.42;24629;1324;3027568;-73
2022/10/15 08:47:28;;;;;;;2.70;1.40;;;;;;;12.73;40.83;100408.42;24508;1340;3054181;-68
2022/10/15 08:49:58;;;;;;;2.30;1.10;;;;;;;12.89;40.58;100407.00;24597;1338;3049417;-67
2022/10/15 08:52:41;;;;;;;;;;;;;;;12.92;40.89;100407.89;24589;1331;3069878;-66
2022/10/15 08:55:12;;;;;;;3.50;1.30;;;;;;;12.95;40.79;100402.63;24548;1330;3049709;-68
2022/10/15 08:58:03;;;;;;;5.80;1.60;;;;;;;12.99;39.86;100403.84;24617;1333;3026324;-69
2022/10/15 09:00:57;;;;;;;3.10;1.60;;;;;;;13.07;39.94;100400.20;24635;1323;3052880;-70
2022/10/15 09:04:02;;;;;;;4.60;1.70;;;;;;;12.98;39.38;100395.80;24585;1336;3053348;-70
2022/10/15 09:06:33;;;;;;;2.60;1.50;;;;;;;13.11;39.45;100397.52;25042;1332;3053904;-68
2022/10/15 09:09:07;;;;;;;2.70;1.20;;;;;;;13.06;38.71;100393.60;24612;1324;3026314;-69
2022/10/15 09:11:43;;;;;;;3.30;1.10;;;;;;;13.04;38.64;100389.66;24559;1322;3049628;-74
2022/10/15 09:14:18;;;;;;;2.90;1.40;;;;;;;13.17;37.98;100389.63;24546;1332;3070143;-72
2022/10/15 09:16:48;;;;;;;3.40;1.40;;;;;;;13.29;38.04;100386.85;24604;1331;3050094;-71
2022/10/15 09:19:23;;;;;;;2.50;1.20;;;;;;;13.35;37.61;100388.29;24580;1333;3027469;-73
2022/10/15 09:21:52;;;;;;;3.80;1.10;;;;;;;13.41;37.51;100381.61;24561;1328;3026498;-70
2022/10/15 09:24:22;;;;;;;3.20;1.30;;;;;;;13.49;37.38;100379.23;24577;1330;3028221;-72
2022/10/15 09:26:57;;;;;;;1.20;1.10;;;;;;;13.52;37.03;100377.44;24548;1336;3056361;-68
2022/10/15 09:29:59;;;;;;;2.70;1.30;;;;;;;13.59;36.60;100377.40;24567;1336;3052642;-71
2022/10/15 09:32:36;;;;;;;3.40;1.40;;;;;;;13.50;36.48;100376.52;24553;1333;3054684;-71
2022/10/15 09:35:16;;;;;;;3.70;1.30;;;;;;;13.55;36.97;100374.96;24611;1338;3051917;-75
2022/10/15 09:37:52;;;;;;;2.20;1.20;;;;;;;13.52;36.84;100377.08;24576;1323;3052514;-71
2022/10/15 09:40:28;;;;;;;2.20;1.30;;;;;;;13.54;37.15;100373.66;24576;1329;3049298;-67
2022/10/15 09:42:57;;;;;;;2.10;1.20;;;;;;;13.62;37.15;100372.12;24590;1331;3068165;-68
2022/10/15 09:45:26;;;;;;;4.70;2.00;;;;;;;13.55;37.50;100374.27;24573;1326;3025724;-68
2022/10/15 09:47:59;;;;;;;2.40;1.40;;;;;;;13.63;37.59;100372.23;24566;1330;3047502;-66
2022/10/15 09:50:41;;;;;;;2.50;1.30;;;;;;;13.74;37.73;100374.78;24606;1331;3068256;-71
2022/10/15 09:53:48;;;;;;;3.90;2.00;;;;;;;13.87;37.60;100373.45;24565;1331;3052013;-67
2022/10/15 09:56:18;;;;;;;5.00;1.30;;;;;;;14.00;37.65;100371.29;24558;1324;3058226;-73
2022/10/15 09:58:53;;;;;;;2.60;1.40;;;;;;;14.05;37.10;100368.85;24625;1331;3026227;-71
2022/10/15 10:01:23;;;;;;;2.90;1.50;;;;;;;14.03;36.87;100368.31;24569;1325;3052936;-67
2022/10/15 10:04:28;;;;;;;3.00;1.40;;;;;;;14.07;36.96;100363.45;24536;1331;3027758;-73
2022/10/15 10:07:01;;;;;;;2.00;1.60;;;;;;;14.10;36.33;100364.33;24664;1331;3053621;-67
2022/10/15 10:09:52;;;;;;;3.10;1.50;;;;;;;14.12;36.81;100366.16;24599;1333;3028423;-69
2022/10/15 10:12:24;;;;;;;4.30;1.90;;;;;;;14.13;36.67;100364.14;24618;1325;3069189;-72
2022/10/15 10:14:57;;;;;;;2.40;1.40;;;;;;;14.06;37.28;100359.48;24617;1325;3026464;-69
2022/10/15 10:17:29;;;;;;;3.30;1.90;;;;;;;14.04;36.91;100363.09;24547;1321;3054598;-70
2022/10/15 10:20:13;;;;;;;5.10;2.00;;;;;;;14.17;36.92;100360.05;24626;1334;3026956;-72
2022/10/15 10:22:51;;;;;;;;;;;;;;;14.27;36.66;100355.19;24561;1323;3052600;-74
2022/10/15 10:25:30;;;;;;;2.80;1.50;;;;;;;14.37;36.97;100349.61;24569;1331;3052787;-70
2022/10/15 10:28:07;;;;;;;3.70;2.10;;;;;;;14.53;36.71;100350.96;24546;1330;3053762;-70
2022/10/15 10:30:56;;;;;;;2.90;1.80;;;;;;;14.48;36.90;100351.61;24569;1333;3050064;-69
2022/10/15 10:33:27;;;;;;;4.20;2.20;;;;;;;14.63;36.88;100350.46;24595;1333;3070637;-72
2022/10/15 10:35:56;;;;;;;2.00;1.40;;;;;;;14.66;36.82;100350.30;24556;1339;3025693;-68
2022/10/15 10:38:30;;;;;;;3.30;1.50;;;;;;;14.70;36.26;100347.76;24636;1322;3025597;-70
2022/10/15 10:41:06;;;;;;;4.40;1.70;;;;;;;14.61;36.02;100348.48;24590;1329;3027113;-71
2022/10/15 10:43:54;;;;;;;2.80;1.30;;;;;;;14.70;36.23;100348.30;24594;1339;3053734;-69
2022/10/15 10:46:23;;;;;;;2.70;1.30;;;;;;;14.72;36.21;100343.44;24657;1323;3051341;-70
2022/10/15 10:48:52;;;;;;;3.70;2.20;;;;;;;14.79;36.41;100345.12;24547;1325;3025998;-68
2022/10/15 10:51:25;;;;;;;6.70;3.00;;;;;;;14.81;36.79;100350.80;24672;1332;3052362;-68
2022/10/15 10:54:23;;;;;;;3.80;2.20;;;;;;;14.92;36.99;100349.52;24627;1334;3051808;-73
2022/10/15 10:56:53;;;;;;;4.90;1.90;;;;;;;14.99;36.82;100347.35;24626;1332;3027961;-69
2022/10/15 10:59:22;;;;;;;3.30;1.80;;;;;;;14.98;37.05;100349.48;24513;1333;3025984;-72
2022/10/15 11:01:51;;;;;;;5.50;2.00;;;;;;;14.99;36.75;100350.66;24543;1329;3025774;-68
2022/10/15 11:04:30;;;;;;;3.00;1.50;;;;;;;14.99;36.30;100350.17;24534;1330;3053229;-71
2022/10/15 11:07:21;;;;;;;3.30;1.80;;;;;;;14.98;36.04;100348.27;24549;1330;3049207;-71
2022/10/15 11:10:21;;;;;;;3.80;1.50;;;;;;;15.03;36.21;100344.63;24554;1333;3070221;-71
2022/10/15 11:13:33;;;;;;;3.20;1.70;;;;;;;15.16;36.60;100339.33;24620;1323;3050166;-70
2022/10/15 11:16:15;;;;;;;4.20;1.80;;;;;;;15.35;36.15;100330.84;24508;1336;3056659;-71
2022/10/15 11:19:22;;;;;;;3.20;1.90;;;;;;;15.42;36.34;100331.42;24568;1315;3053798;-73
2022/10/15 11:22:19;;;;;;;3.50;1.60;;;;;;;15.45;35.99;100330.17;24592;1323;3054694;-65
2022/10/15 11:24:56;;;;;;;3.80;1.40;;;;;;;15.40;36.15;100325.39;24553;1323;3051965;-71
2022/10/15 11:28:02;;;;;;;2.80;1.70;;;;;;;15.51;35.86;100329.45;24554;1331;3053688;-70
2022/10/15 11:30:37;;;;;;;2.80;1.70;;;;;;;15.50;35.53;100325.08;24613;1333;3050809;-68
2022/10/15 11:33:48;;;;;;;5.20;1.20;;;;;;;15.35;35.74;100327.98;24600;1315;3068795;-71
2022/10/15 11:36:36;;;;;;;3.50;1.50;;;;;;;15.50;35.64;100326.35;24558;1336;3050065;-73
2022/10/15 11:39:17;;;;;;;2.50;1.30;;;;;;;15.58;34.68;100325.75;24604;1328;3057255;-67
2022/10/15 11:42:02;;;;;;;4.90;1.20;;;;;;;15.61;34.83;100327.17;24594;1333;3054079;-68
2022/10/15 11:44:55;;;;;;;2.40;1.10;;;;;;;15.60;34.73;100325.64;24576;1336;3053052;-73
2022/10/15 11:47:30;;;;;;;2.10;1.20;;;;;;;15.64;34.71;100333.67;24618;1331;3052003;-67
2022/10/15 11:50:06;;;;;;;2.20;1.00;;;;;;;15.63;34.69;100334.83;24600;1331;3052981;-72